sensor_id;sensor_type;location;lat;lon;timestamp;pressure;altitude;pressure_sealevel;temperature
77331;BMP280;66405;48.328;7.820;2023-04-25T00:00:59;99361.44;;;12.00
77331;BMP280;66405;48.328;7.820;2023-04-25T00:04:00;99361.16;;;11.98
77331;BMP280;66405;48.328;7.820;2023-04-25T00:07:01;99354.25;;;11.97
77331;BMP280;66405;48.328;7.820;2023-04-25T00:10:02;99347.81;;;11.94
77331;BMP280;66405;48.328;7.820;2023-04-25T00:13:03;99352.66;;;11.90
77331;BMP280;66405;48.328;7.820;2023-04-25T00:16:04;99344.44;;;11.84
77331;BMP280;66405;48.328;7.820;2023-04-25T00:19:04;99352.72;;;11.81
77331;BMP280;66405;48.328;7.820;2023-04-25T00:22:05;99351.13;;;11.74
77331;BMP280;66405;48.328;7.820;2023-04-25T00:25:06;99354.81;;;11.71
77331;BMP280;66405;48.328;7.820;2023-04-25T00:28:07;99348.06;;;11.66
77331;BMP280;66405;48.328;7.820;2023-04-25T00:31:07;99345.53;;;11.63
77331;BMP280;66405;48.328;7.820;2023-04-25T00:34:08;99347.03;;;11.64
77331;BMP280;66405;48.328;7.820;2023-04-25T00:37:09;99339.38;;;11.62
77331;BMP280;66405;48.328;7.820;2023-04-25T00:40:10;99355.63;;;11.62
77331;BMP280;66405;48.328;7.820;2023-04-25T00:43:11;99350.56;;;11.55
77331;BMP280;66405;48.328;7.820;2023-04-25T00:46:11;99356.16;;;11.51
77331;BMP280;66405;48.328;7.820;2023-04-25T00:49:12;99343.72;;;11.45
77331;BMP280;66405;48.328;7.820;2023-04-25T00:52:15;99340.16;;;11.39
77331;BMP280;66405;48.328;7.820;2023-04-25T00:55:16;99349.94;;;11.36
77331;BMP280;66405;48.328;7.820;2023-04-25T00:58:18;99349.41;;;11.32
77331;BMP280;66405;48.328;7.820;2023-04-25T01:01:18;99346.09;;;11.28
77331;BMP280;66405;48.328;7.820;2023-04-25T01:04:20;99348.06;;;11.27
77331;BMP280;66405;48.328;7.820;2023-04-25T01:07:20;99337.69;;;11.26
77331;BMP280;66405;48.328;7.820;2023-04-25T01:10:21;99338.91;;;11.25
77331;BMP280;66405;48.328;7.820;2023-04-25T01:13:22;99339.38;;;11.23
77331;BMP280;66405;48.328;7.820;2023-04-25T01:16:24;99335.94;;;11.23
77331;BMP280;66405;48.328;7.820;2023-04-25T01:19:25;99338.63;;;11.23
77331;BMP280;66405;48.328;7.820;2023-04-25T01:22:26;99332.94;;;11.21
77331;BMP280;66405;48.328;7.820;2023-04-25T01:25:26;99330.69;;;11.19
77331;BMP280;66405;48.328;7.820;2023-04-25T01:28:28;99330.56;;;11.13
77331;BMP280;66405;48.328;7.820;2023-04-25T01:31:28;99331.50;;;11.10
77331;BMP280;66405;48.328;7.820;2023-04-25T01:34:30;99327.47;;;11.06
77331;BMP280;66405;48.328;7.820;2023-04-25T01:37:32;99321.94;;;11.00
77331;BMP280;66405;48.328;7.820;2023-04-25T01:40:33;99319.59;;;10.93
77331;BMP280;66405;48.328;7.820;2023-04-25T01:43:34;99316.75;;;10.87
77331;BMP280;66405;48.328;7.820;2023-04-25T01:46:35;99320.84;;;10.82
77331;BMP280;66405;48.328;7.820;2023-04-25T01:49:36;99319.22;;;10.76
77331;BMP280;66405;48.328;7.820;2023-04-25T01:52:36;99314.44;;;10.71
77331;BMP280;66405;48.328;7.820;2023-04-25T01:55:37;99307.25;;;10.67
77331;BMP280;66405;48.328;7.820;2023-04-25T01:58:42;99315.84;;;10.66
77331;BMP280;66405;48.328;7.820;2023-04-25T02:01:42;99310.13;;;10.64
77331;BMP280;66405;48.328;7.820;2023-04-25T02:04:52;99300.69;;;10.59
77331;BMP280;66405;48.328;7.820;2023-04-25T02:07:53;99301.59;;;10.56
77331;BMP280;66405;48.328;7.820;2023-04-25T02:10:53;99315.25;;;10.52
77331;BMP280;66405;48.328;7.820;2023-04-25T02:13:54;99312.75;;;10.49
77331;BMP280;66405;48.328;7.820;2023-04-25T02:17:12;99308.53;;;10.48
77331;BMP280;66405;48.328;7.820;2023-04-25T02:20:13;99297.91;;;10.44
77331;BMP280;66405;48.328;7.820;2023-04-25T02:23:14;99294.19;;;10.42
77331;BMP280;66405;48.328;7.820;2023-04-25T02:26:19;99294.31;;;10.38
77331;BMP280;66405;48.328;7.820;2023-04-25T02:29:19;99289.84;;;10.35
77331;BMP280;66405;48.328;7.820;2023-04-25T02:32:20;99299.16;;;10.34
77331;BMP280;66405;48.328;7.820;2023-04-25T02:35:21;99289.84;;;10.35
77331;BMP280;66405;48.328;7.820;2023-04-25T02:38:21;99289.38;;;10.37
77331;BMP280;66405;48.328;7.820;2023-04-25T02:41:22;99281.88;;;10.41
77331;BMP280;66405;48.328;7.820;2023-04-25T02:44:22;99284.38;;;10.44
77331;BMP280;66405;48.328;7.820;2023-04-25T02:47:23;99291.56;;;10.47
77331;BMP280;66405;48.328;7.820;2023-04-25T02:50:23;99295.78;;;10.48
77331;BMP280;66405;48.328;7.820;2023-04-25T02:53:24;99298.63;;;10.45
77331;BMP280;66405;48.328;7.820;2023-04-25T02:56:26;99297.63;;;10.42
77331;BMP280;66405;48.328;7.820;2023-04-25T02:59:27;99316.97;;;10.41
77331;BMP280;66405;48.328;7.820;2023-04-25T03:02:28;99315.06;;;10.32
77331;BMP280;66405;48.328;7.820;2023-04-25T03:05:28;99328.88;;;10.25
77331;BMP280;66405;48.328;7.820;2023-04-25T03:08:29;99326.50;;;10.17
77331;BMP280;66405;48.328;7.820;2023-04-25T03:11:33;99317.81;;;10.13
77331;BMP280;66405;48.328;7.820;2023-04-25T03:14:35;99307.16;;;10.10
77331;BMP280;66405;48.328;7.820;2023-04-25T03:17:35;99291.25;;;10.12
77331;BMP280;66405;48.328;7.820;2023-04-25T03:20:36;99288.41;;;10.15
77331;BMP280;66405;48.328;7.820;2023-04-25T03:23:37;99265.84;;;10.18
77331;BMP280;66405;48.328;7.820;2023-04-25T03:26:38;99264.22;;;10.21
77331;BMP280;66405;48.328;7.820;2023-04-25T03:29:39;99257.63;;;10.22
77331;BMP280;66405;48.328;7.820;2023-04-25T03:32:40;99259.09;;;10.23
77331;BMP280;66405;48.328;7.820;2023-04-25T03:35:41;99257.16;;;10.24
77331;BMP280;66405;48.328;7.820;2023-04-25T03:38:42;99262.56;;;10.24
77331;BMP280;66405;48.328;7.820;2023-04-25T03:41:44;99257.16;;;10.24
77331;BMP280;66405;48.328;7.820;2023-04-25T03:44:48;99259.41;;;10.25
77331;BMP280;66405;48.328;7.820;2023-04-25T03:47:48;99257.00;;;10.27
77331;BMP280;66405;48.328;7.820;2023-04-25T03:50:50;99255.34;;;10.30
77331;BMP280;66405;48.328;7.820;2023-04-25T03:53:51;99253.69;;;10.32
77331;BMP280;66405;48.328;7.820;2023-04-25T03:57:18;99247.53;;;10.32
77331;BMP280;66405;48.328;7.820;2023-04-25T04:00:18;99241.41;;;10.31
77331;BMP280;66405;48.328;7.820;2023-04-25T04:03:19;99246.50;;;10.29
77331;BMP280;66405;48.328;7.820;2023-04-25T04:06:21;99235.38;;;10.27
77331;BMP280;66405;48.328;7.820;2023-04-25T04:09:25;99240.06;;;10.27
77331;BMP280;66405;48.328;7.820;2023-04-25T04:12:29;99237.06;;;10.25
77331;BMP280;66405;48.328;7.820;2023-04-25T04:15:30;99231.38;;;10.23
77331;BMP280;66405;48.328;7.820;2023-04-25T04:18:33;99233.34;;;10.22
77331;BMP280;66405;48.328;7.820;2023-04-25T04:21:33;99233.75;;;10.21
77331;BMP280;66405;48.328;7.820;2023-04-25T04:24:34;99241.44;;;10.22
77331;BMP280;66405;48.328;7.820;2023-04-25T04:27:39;99239.94;;;10.21
77331;BMP280;66405;48.328;7.820;2023-04-25T04:30:54;99234.81;;;10.23
77331;BMP280;66405;48.328;7.820;2023-04-25T04:33:55;99242.78;;;10.27
77331;BMP280;66405;48.328;7.820;2023-04-25T04:36:57;99241.56;;;10.28
77331;BMP280;66405;48.328;7.820;2023-04-25T04:39:57;99245.28;;;10.30
77331;BMP280;66405;48.328;7.820;2023-04-25T04:43:13;99245.13;;;10.34
77331;BMP280;66405;48.328;7.820;2023-04-25T04:46:35;99253.06;;;10.38
77331;BMP280;66405;48.328;7.820;2023-04-25T04:50:04;99249.47;;;10.41
77331;BMP280;66405;48.328;7.820;2023-04-25T04:53:15;99256.63;;;10.44
77331;BMP280;66405;48.328;7.820;2023-04-25T04:56:36;99261.84;;;10.47
77331;BMP280;66405;48.328;7.820;2023-04-25T04:59:59;99254.81;;;10.50
77331;BMP280;66405;48.328;7.820;2023-04-25T05:03:38;99252.66;;;10.54
77331;BMP280;66405;48.328;7.820;2023-04-25T05:07:01;99246.06;;;10.55
77331;BMP280;66405;48.328;7.820;2023-04-25T05:10:06;99248.59;;;10.59
77331;BMP280;66405;48.328;7.820;2023-04-25T05:13:09;99250.09;;;10.60
77331;BMP280;66405;48.328;7.820;2023-04-25T05:16:10;99253.09;;;10.62
77331;BMP280;66405;48.328;7.820;2023-04-25T05:19:32;99260.44;;;10.61
77331;BMP280;66405;48.328;7.820;2023-04-25T05:22:51;99265.56;;;10.59
77331;BMP280;66405;48.328;7.820;2023-04-25T05:26:12;99260.44;;;10.61
77331;BMP280;66405;48.328;7.820;2023-04-25T05:29:40;99268.84;;;10.63
77331;BMP280;66405;48.328;7.820;2023-04-25T05:32:57;99269.59;;;10.64
77331;BMP280;66405;48.328;7.820;2023-04-25T05:35:57;99275.91;;;10.61
77331;BMP280;66405;48.328;7.820;2023-04-25T05:39:00;99289.13;;;10.59
77331;BMP280;66405;48.328;7.820;2023-04-25T05:42:19;99296.66;;;10.55
77331;BMP280;66405;48.328;7.820;2023-04-25T05:45:22;99312.28;;;10.50
77331;BMP280;66405;48.328;7.820;2023-04-25T05:48:41;99312.66;;;10.34
77331;BMP280;66405;48.328;7.820;2023-04-25T05:52:04;99313.75;;;10.18
77331;BMP280;66405;48.328;7.820;2023-04-25T05:55:28;99318.28;;;10.02
77331;BMP280;66405;48.328;7.820;2023-04-25T05:58:32;99317.84;;;9.85
77331;BMP280;66405;48.328;7.820;2023-04-25T06:01:34;99324.63;;;9.72
77331;BMP280;66405;48.328;7.820;2023-04-25T06:04:39;99334.38;;;9.60
77331;BMP280;66405;48.328;7.820;2023-04-25T06:07:41;99335.09;;;9.51
77331;BMP280;66405;48.328;7.820;2023-04-25T06:10:42;99338.09;;;9.44
77331;BMP280;66405;48.328;7.820;2023-04-25T06:13:42;99339.44;;;9.39
77331;BMP280;66405;48.328;7.820;2023-04-25T06:16:43;99340.16;;;9.40
77331;BMP280;66405;48.328;7.820;2023-04-25T06:19:44;99350.66;;;9.38
77331;BMP280;66405;48.328;7.820;2023-04-25T06:22:46;99355.00;;;9.35
77331;BMP280;66405;48.328;7.820;2023-04-25T06:25:47;99363.25;;;9.31
77331;BMP280;66405;48.328;7.820;2023-04-25T06:28:47;99355.88;;;9.32
77331;BMP280;66405;48.328;7.820;2023-04-25T06:31:47;99361.16;;;9.36
77331;BMP280;66405;48.328;7.820;2023-04-25T06:34:50;99369.25;;;9.36
77331;BMP280;66405;48.328;7.820;2023-04-25T06:37:52;99367.28;;;9.36
77331;BMP280;66405;48.328;7.820;2023-04-25T06:40:55;99365.63;;;9.39
77331;BMP280;66405;48.328;7.820;2023-04-25T06:43:58;99365.06;;;9.44
77331;BMP280;66405;48.328;7.820;2023-04-25T06:47:07;99359.97;;;9.46
77331;BMP280;66405;48.328;7.820;2023-04-25T06:50:08;99367.47;;;9.51
77331;BMP280;66405;48.328;7.820;2023-04-25T06:53:11;99370.63;;;9.59
77331;BMP280;66405;48.328;7.820;2023-04-25T06:56:12;99376.16;;;9.64
77331;BMP280;66405;48.328;7.820;2023-04-25T06:59:24;99389.50;;;9.68
77331;BMP280;66405;48.328;7.820;2023-04-25T07:02:25;99389.19;;;9.75
77331;BMP280;66405;48.328;7.820;2023-04-25T07:05:27;99398.81;;;9.85
77331;BMP280;66405;48.328;7.820;2023-04-25T07:08:29;99410.19;;;9.90
77331;BMP280;66405;48.328;7.820;2023-04-25T07:11:33;99413.50;;;9.94
77331;BMP280;66405;48.328;7.820;2023-04-25T07:14:35;99416.38;;;9.99
77331;BMP280;66405;48.328;7.820;2023-04-25T07:17:36;99414.69;;;10.02
77331;BMP280;66405;48.328;7.820;2023-04-25T07:20:37;99417.56;;;9.98
77331;BMP280;66405;48.328;7.820;2023-04-25T07:23:38;99412.31;;;9.95
77331;BMP280;66405;48.328;7.820;2023-04-25T07:26:48;99415.88;;;10.01
77331;BMP280;66405;48.328;7.820;2023-04-25T07:30:08;99434.34;;;10.12
77331;BMP280;66405;48.328;7.820;2023-04-25T07:33:09;99440.03;;;10.14
77331;BMP280;66405;48.328;7.820;2023-04-25T07:36:10;99440.19;;;10.10
77331;BMP280;66405;48.328;7.820;2023-04-25T07:39:13;99446.50;;;10.16
77331;BMP280;66405;48.328;7.820;2023-04-25T07:42:14;99443.03;;;10.25
77331;BMP280;66405;48.328;7.820;2023-04-25T07:45:17;99449.78;;;10.30
77331;BMP280;66405;48.328;7.820;2023-04-25T07:48:19;99453.84;;;10.34
77331;BMP280;66405;48.328;7.820;2023-04-25T07:51:23;99462.22;;;10.37
77331;BMP280;66405;48.328;7.820;2023-04-25T07:54:27;99467.47;;;10.40
77331;BMP280;66405;48.328;7.820;2023-04-25T07:57:37;99463.59;;;10.41
77331;BMP280;66405;48.328;7.820;2023-04-25T08:00:38;99471.69;;;10.41
77331;BMP280;66405;48.328;7.820;2023-04-25T08:04:07;99484.28;;;10.44
77331;BMP280;66405;48.328;7.820;2023-04-25T08:07:23;99487.28;;;10.56
77331;BMP280;66405;48.328;7.820;2023-04-25T08:10:28;99501.19;;;10.73
77331;BMP280;66405;48.328;7.820;2023-04-25T08:13:29;99497.72;;;10.91
77331;BMP280;66405;48.328;7.820;2023-04-25T08:16:33;99500.06;;;11.07
77331;BMP280;66405;48.328;7.820;2023-04-25T08:19:36;99520.13;;;11.25
77331;BMP280;66405;48.328;7.820;2023-04-25T08:22:37;99522.19;;;11.39
77331;BMP280;66405;48.328;7.820;2023-04-25T08:25:59;99519.09;;;11.56
77331;BMP280;66405;48.328;7.820;2023-04-25T08:29:02;99532.38;;;11.68
77331;BMP280;66405;48.328;7.820;2023-04-25T08:32:03;99537.00;;;11.77
77331;BMP280;66405;48.328;7.820;2023-04-25T08:35:07;99542.84;;;11.85
77331;BMP280;66405;48.328;7.820;2023-04-25T08:38:08;99547.31;;;11.88
77331;BMP280;66405;48.328;7.820;2023-04-25T08:41:11;99556.06;;;11.83
77331;BMP280;66405;48.328;7.820;2023-04-25T08:44:12;99559.72;;;11.80
77331;BMP280;66405;48.328;7.820;2023-04-25T08:47:13;99567.38;;;11.81
77331;BMP280;66405;48.328;7.820;2023-04-25T08:50:22;99566.47;;;11.75
77331;BMP280;66405;48.328;7.820;2023-04-25T08:53:26;99566.66;;;11.72
77331;BMP280;66405;48.328;7.820;2023-04-25T08:56:27;99572.25;;;11.68
77331;BMP280;66405;48.328;7.820;2023-04-25T08:59:29;99575.56;;;11.63
77331;BMP280;66405;48.328;7.820;2023-04-25T09:02:30;99568.78;;;11.67
77331;BMP280;66405;48.328;7.820;2023-04-25T09:05:33;99577.78;;;11.74
77331;BMP280;66405;48.328;7.820;2023-04-25T09:08:37;99590.50;;;11.82
77331;BMP280;66405;48.328;7.820;2023-04-25T09:11:37;99595.13;;;11.91
77331;BMP280;66405;48.328;7.820;2023-04-25T09:14:42;99600.03;;;12.02
77331;BMP280;66405;48.328;7.820;2023-04-25T09:17:57;99599.97;;;12.11
77331;BMP280;66405;48.328;7.820;2023-04-25T09:21:11;99603.56;;;12.17
77331;BMP280;66405;48.328;7.820;2023-04-25T09:24:12;99605.00;;;12.28
77331;BMP280;66405;48.328;7.820;2023-04-25T09:27:18;99593.63;;;12.38
77331;BMP280;66405;48.328;7.820;2023-04-25T09:30:33;99586.09;;;12.58
77331;BMP280;66405;48.328;7.820;2023-04-25T09:33:45;99590.56;;;12.91
77331;BMP280;66405;48.328;7.820;2023-04-25T09:36:47;99594.28;;;13.23
77331;BMP280;66405;48.328;7.820;2023-04-25T09:40:26;99600.78;;;13.61
77331;BMP280;66405;48.328;7.820;2023-04-25T09:43:39;99611.13;;;13.98
77331;BMP280;66405;48.328;7.820;2023-04-25T09:46:41;99607.09;;;14.35
77331;BMP280;66405;48.328;7.820;2023-04-25T09:49:54;99609.50;;;14.80
77331;BMP280;66405;48.328;7.820;2023-04-25T09:53:03;99618.72;;;15.20
77331;BMP280;66405;48.328;7.820;2023-04-25T09:56:15;99613.91;;;15.41
77331;BMP280;66405;48.328;7.820;2023-04-25T09:59:19;99615.31;;;15.68
77331;BMP280;66405;48.328;7.820;2023-04-25T10:02:23;99610.75;;;16.03
77331;BMP280;66405;48.328;7.820;2023-04-25T10:05:29;99619.53;;;16.46
77331;BMP280;66405;48.328;7.820;2023-04-25T10:08:35;99621.75;;;16.76
77331;BMP280;66405;48.328;7.820;2023-04-25T10:11:36;99622.53;;;16.94
77331;BMP280;66405;48.328;7.820;2023-04-25T10:14:39;99625.72;;;17.09
77331;BMP280;66405;48.328;7.820;2023-04-25T10:17:42;99628.19;;;17.24
77331;BMP280;66405;48.328;7.820;2023-04-25T10:20:43;99621.19;;;17.46
77331;BMP280;66405;48.328;7.820;2023-04-25T10:23:45;99611.69;;;17.58
77331;BMP280;66405;48.328;7.820;2023-04-25T10:26:47;99623.44;;;17.30
77331;BMP280;66405;48.328;7.820;2023-04-25T10:30:09;99609.00;;;17.47
77331;BMP280;66405;48.328;7.820;2023-04-25T10:33:17;99618.88;;;17.67
77331;BMP280;66405;48.328;7.820;2023-04-25T10:36:20;99623.03;;;17.85
77331;BMP280;66405;48.328;7.820;2023-04-25T10:39:29;99620.13;;;18.13
77331;BMP280;66405;48.328;7.820;2023-04-25T10:42:29;99609.63;;;18.59
77331;BMP280;66405;48.328;7.820;2023-04-25T10:45:50;99605.69;;;18.54
77331;BMP280;66405;48.328;7.820;2023-04-25T10:52:24;99599.78;;;18.44
77331;BMP280;66405;48.328;7.820;2023-04-25T10:55:25;99600.66;;;18.58
77331;BMP280;66405;48.328;7.820;2023-04-25T10:58:26;99609.19;;;19.04
77331;BMP280;66405;48.328;7.820;2023-04-25T11:01:35;99600.00;;;19.26
77331;BMP280;66405;48.328;7.820;2023-04-25T11:04:36;99607.50;;;19.26
77331;BMP280;66405;48.328;7.820;2023-04-25T11:10:49;99602.09;;;19.39
77331;BMP280;66405;48.328;7.820;2023-04-25T11:13:52;99604.72;;;20.21
77331;BMP280;66405;48.328;7.820;2023-04-25T11:16:54;99597.56;;;20.90
77331;BMP280;66405;48.328;7.820;2023-04-25T11:19:57;99593.34;;;20.62
77331;BMP280;66405;48.328;7.820;2023-04-25T11:22:58;99589.56;;;20.01
77331;BMP280;66405;48.328;7.820;2023-04-25T11:26:04;99595.25;;;19.70
77331;BMP280;66405;48.328;7.820;2023-04-25T11:29:09;99597.06;;;19.43
77331;BMP280;66405;48.328;7.820;2023-04-25T11:32:11;99604.59;;;18.93
77331;BMP280;66405;48.328;7.820;2023-04-25T11:35:12;99632.63;;;18.39
77331;BMP280;66405;48.328;7.820;2023-04-25T11:38:13;99637.56;;;17.46
77331;BMP280;66405;48.328;7.820;2023-04-25T11:41:14;99648.69;;;16.17
77331;BMP280;66405;48.328;7.820;2023-04-25T11:44:16;99633.84;;;15.21
77331;BMP280;66405;48.328;7.820;2023-04-25T11:47:19;99612.88;;;14.69
77331;BMP280;66405;48.328;7.820;2023-04-25T11:50:21;99598.28;;;14.46
77331;BMP280;66405;48.328;7.820;2023-04-25T11:53:22;99599.97;;;14.37
77331;BMP280;66405;48.328;7.820;2023-04-25T11:56:25;99615.53;;;14.37
77331;BMP280;66405;48.328;7.820;2023-04-25T11:59:25;99616.38;;;14.49
77331;BMP280;66405;48.328;7.820;2023-04-25T12:02:27;99610.91;;;14.69
77331;BMP280;66405;48.328;7.820;2023-04-25T12:05:30;99619.38;;;15.09
77331;BMP280;66405;48.328;7.820;2023-04-25T12:08:33;99619.72;;;15.65
77331;BMP280;66405;48.328;7.820;2023-04-25T12:11:52;99622.94;;;16.30
77331;BMP280;66405;48.328;7.820;2023-04-25T12:14:54;99619.25;;;16.95
77331;BMP280;66405;48.328;7.820;2023-04-25T12:17:55;99623.63;;;17.61
77331;BMP280;66405;48.328;7.820;2023-04-25T12:20:57;99630.81;;;18.17
77331;BMP280;66405;48.328;7.820;2023-04-25T12:24:22;99625.06;;;18.56
77331;BMP280;66405;48.328;7.820;2023-04-25T12:27:25;99634.50;;;18.86
77331;BMP280;66405;48.328;7.820;2023-04-25T12:30:27;99630.97;;;19.40
77331;BMP280;66405;48.328;7.820;2023-04-25T12:33:30;99618.88;;;19.93
77331;BMP280;66405;48.328;7.820;2023-04-25T12:36:32;99630.72;;;20.20
77331;BMP280;66405;48.328;7.820;2023-04-25T12:39:33;99628.47;;;20.64
77331;BMP280;66405;48.328;7.820;2023-04-25T12:42:36;99627.56;;;20.75
77331;BMP280;66405;48.328;7.820;2023-04-25T12:45:37;99638.97;;;20.79
77331;BMP280;66405;48.328;7.820;2023-04-25T12:48:38;99637.81;;;20.88
77331;BMP280;66405;48.328;7.820;2023-04-25T12:51:39;99639.00;;;21.06
77331;BMP280;66405;48.328;7.820;2023-04-25T12:54:41;99634.66;;;21.24
77331;BMP280;66405;48.328;7.820;2023-04-25T12:57:44;99638.44;;;21.47
77331;BMP280;66405;48.328;7.820;2023-04-25T13:00:45;99631.13;;;21.50
77331;BMP280;66405;48.328;7.820;2023-04-25T13:03:48;99633.34;;;21.51
77331;BMP280;66405;48.328;7.820;2023-04-25T13:06:50;99645.56;;;21.98
77331;BMP280;66405;48.328;7.820;2023-04-25T13:09:51;99631.72;;;23.04
77331;BMP280;66405;48.328;7.820;2023-04-25T13:12:51;99626.38;;;23.50
77331;BMP280;66405;48.328;7.820;2023-04-25T13:15:52;99647.94;;;23.23
77331;BMP280;66405;48.328;7.820;2023-04-25T13:18:52;99662.34;;;22.71
77331;BMP280;66405;48.328;7.820;2023-04-25T13:21:53;99679.91;;;21.84
77331;BMP280;66405;48.328;7.820;2023-04-25T13:24:55;99682.69;;;20.77
77331;BMP280;66405;48.328;7.820;2023-04-25T13:27:57;99675.63;;;19.79
77331;BMP280;66405;48.328;7.820;2023-04-25T13:30:57;99675.16;;;19.06
77331;BMP280;66405;48.328;7.820;2023-04-25T13:33:59;99689.00;;;18.59
77331;BMP280;66405;48.328;7.820;2023-04-25T13:37:00;99686.88;;;18.40
77331;BMP280;66405;48.328;7.820;2023-04-25T13:40:03;99683.56;;;18.47
77331;BMP280;66405;48.328;7.820;2023-04-25T13:43:07;99689.28;;;18.86
77331;BMP280;66405;48.328;7.820;2023-04-25T13:46:07;99689.56;;;19.37
77331;BMP280;66405;48.328;7.820;2023-04-25T13:49:08;99703.84;;;19.73
77331;BMP280;66405;48.328;7.820;2023-04-25T13:52:08;99700.50;;;19.62
77331;BMP280;66405;48.328;7.820;2023-04-25T13:55:09;99712.19;;;19.13
77331;BMP280;66405;48.328;7.820;2023-04-25T13:58:10;99710.88;;;18.59
77331;BMP280;66405;48.328;7.820;2023-04-25T14:01:11;99706.91;;;18.07
77331;BMP280;66405;48.328;7.820;2023-04-25T14:04:11;99710.78;;;17.64
77331;BMP280;66405;48.328;7.820;2023-04-25T14:07:12;99710.59;;;17.22
77331;BMP280;66405;48.328;7.820;2023-04-25T14:10:12;99717.28;;;16.93
77331;BMP280;66405;48.328;7.820;2023-04-25T14:13:15;99720.72;;;16.71
77331;BMP280;66405;48.328;7.820;2023-04-25T14:16:16;99723.38;;;16.48
77331;BMP280;66405;48.328;7.820;2023-04-25T14:19:17;99717.13;;;16.31
77331;BMP280;66405;48.328;7.820;2023-04-25T14:22:19;99711.88;;;16.16
77331;BMP280;66405;48.328;7.820;2023-04-25T14:25:22;99722.25;;;16.06
77331;BMP280;66405;48.328;7.820;2023-04-25T14:28:25;99711.78;;;15.99
77331;BMP280;66405;48.328;7.820;2023-04-25T14:31:27;99713.25;;;15.94
77331;BMP280;66405;48.328;7.820;2023-04-25T14:34:28;99716.47;;;15.93
77331;BMP280;66405;48.328;7.820;2023-04-25T14:37:28;99724.66;;;15.98
77331;BMP280;66405;48.328;7.820;2023-04-25T14:40:30;99725.75;;;16.12
77331;BMP280;66405;48.328;7.820;2023-04-25T14:43:30;99724.84;;;16.38
77331;BMP280;66405;48.328;7.820;2023-04-25T14:46:31;99720.75;;;16.82
77331;BMP280;66405;48.328;7.820;2023-04-25T14:49:34;99703.53;;;17.78
77331;BMP280;66405;48.328;7.820;2023-04-25T14:52:34;99705.28;;;19.99
77331;BMP280;66405;48.328;7.820;2023-04-25T14:55:35;99708.50;;;21.81
77331;BMP280;66405;48.328;7.820;2023-04-25T14:58:35;99705.97;;;22.80
77331;BMP280;66405;48.328;7.820;2023-04-25T15:01:37;99711.13;;;22.63
77331;BMP280;66405;48.328;7.820;2023-04-25T15:04:40;99709.50;;;22.04
77331;BMP280;66405;48.328;7.820;2023-04-25T15:07:42;99711.69;;;21.58
77331;BMP280;66405;48.328;7.820;2023-04-25T15:10:43;99718.16;;;21.21
77331;BMP280;66405;48.328;7.820;2023-04-25T15:13:45;99712.59;;;20.80
77331;BMP280;66405;48.328;7.820;2023-04-25T15:16:46;99720.31;;;20.31
77331;BMP280;66405;48.328;7.820;2023-04-25T15:19:47;99706.69;;;19.87
77331;BMP280;66405;48.328;7.820;2023-04-25T15:22:47;99712.16;;;19.43
77331;BMP280;66405;48.328;7.820;2023-04-25T15:25:51;99704.09;;;19.02
77331;BMP280;66405;48.328;7.820;2023-04-25T15:28:53;99717.63;;;18.52
77331;BMP280;66405;48.328;7.820;2023-04-25T15:31:53;99718.81;;;18.15
77331;BMP280;66405;48.328;7.820;2023-04-25T15:34:54;99720.16;;;17.86
77331;BMP280;66405;48.328;7.820;2023-04-25T15:37:54;99721.44;;;17.68
77331;BMP280;66405;48.328;7.820;2023-04-25T15:40:54;99722.00;;;17.55
77331;BMP280;66405;48.328;7.820;2023-04-25T15:43:55;99730.69;;;17.42
77331;BMP280;66405;48.328;7.820;2023-04-25T15:46:57;99727.97;;;17.42
77331;BMP280;66405;48.328;7.820;2023-04-25T15:49:59;99720.22;;;17.74
77331;BMP280;66405;48.328;7.820;2023-04-25T15:53:00;99724.06;;;18.07
77331;BMP280;66405;48.328;7.820;2023-04-25T15:56:03;99725.34;;;18.01
77331;BMP280;66405;48.328;7.820;2023-04-25T15:59:04;99723.94;;;17.71
77331;BMP280;66405;48.328;7.820;2023-04-25T16:02:06;99721.50;;;17.34
77331;BMP280;66405;48.328;7.820;2023-04-25T16:05:08;99720.75;;;16.99
77331;BMP280;66405;48.328;7.820;2023-04-25T16:08:11;99717.50;;;16.67
77331;BMP280;66405;48.328;7.820;2023-04-25T16:11:11;99730.56;;;16.40
77331;BMP280;66405;48.328;7.820;2023-04-25T16:14:15;99728.47;;;16.12
77331;BMP280;66405;48.328;7.820;2023-04-25T16:17:16;99724.91;;;15.95
77331;BMP280;66405;48.328;7.820;2023-04-25T16:20:18;99732.00;;;15.81
77331;BMP280;66405;48.328;7.820;2023-04-25T16:23:18;99734.66;;;15.70
77331;BMP280;66405;48.328;7.820;2023-04-25T16:26:19;99735.59;;;15.61
77331;BMP280;66405;48.328;7.820;2023-04-25T16:29:23;99739.47;;;15.48
77331;BMP280;66405;48.328;7.820;2023-04-25T16:32:23;99743.59;;;15.38
77331;BMP280;66405;48.328;7.820;2023-04-25T16:35:23;99735.66;;;15.35
77331;BMP280;66405;48.328;7.820;2023-04-25T16:38:25;99739.09;;;15.35
77331;BMP280;66405;48.328;7.820;2023-04-25T16:41:26;99743.28;;;15.30
77331;BMP280;66405;48.328;7.820;2023-04-25T16:44:27;99742.72;;;15.21
77331;BMP280;66405;48.328;7.820;2023-04-25T16:47:27;99748.06;;;15.09
77331;BMP280;66405;48.328;7.820;2023-04-25T16:50:27;99753.53;;;14.89
77331;BMP280;66405;48.328;7.820;2023-04-25T16:53:28;99746.16;;;14.69
77331;BMP280;66405;48.328;7.820;2023-04-25T16:56:31;99754.09;;;14.52
77331;BMP280;66405;48.328;7.820;2023-04-25T16:59:32;99753.63;;;14.33
77331;BMP280;66405;48.328;7.820;2023-04-25T17:02:33;99756.66;;;14.20
77331;BMP280;66405;48.328;7.820;2023-04-25T17:05:34;99757.47;;;14.05
77331;BMP280;66405;48.328;7.820;2023-04-25T17:08:35;99766.66;;;13.93
77331;BMP280;66405;48.328;7.820;2023-04-25T17:11:38;99771.19;;;13.81
77331;BMP280;66405;48.328;7.820;2023-04-25T17:14:40;99776.22;;;13.73
77331;BMP280;66405;48.328;7.820;2023-04-25T17:17:40;99785.03;;;13.53
77331;BMP280;66405;48.328;7.820;2023-04-25T17:20:41;99790.06;;;13.31
77331;BMP280;66405;48.328;7.820;2023-04-25T17:23:42;99795.19;;;13.14
77331;BMP280;66405;48.328;7.820;2023-04-25T17:26:44;99790.00;;;13.01
77331;BMP280;66405;48.328;7.820;2023-04-25T17:29:46;99794.59;;;12.95
77331;BMP280;66405;48.328;7.820;2023-04-25T17:32:47;99791.09;;;12.94
77331;BMP280;66405;48.328;7.820;2023-04-25T17:35:48;99799.72;;;12.93
77331;BMP280;66405;48.328;7.820;2023-04-25T17:38:49;99794.75;;;12.91
77331;BMP280;66405;48.328;7.820;2023-04-25T17:41:49;99800.06;;;12.85
77331;BMP280;66405;48.328;7.820;2023-04-25T17:44:50;99802.66;;;12.80